createdAt,value
2018-09-18T00:02:27.778Z,64.80
2018-09-18T00:04:56.711Z,65.40
2018-09-18T00:07:25.558Z,64.20
2018-09-18T00:09:54.668Z,65.50
2018-09-18T00:12:23.266Z,64.70
2018-09-18T00:14:51.854Z,65.70
2018-09-18T00:17:20.482Z,65.60
2018-09-18T00:19:49.046Z,65.80
2018-09-18T00:22:18.154Z,66.70
2018-09-18T00:24:46.957Z,65.60
2018-09-18T00:27:16.112Z,65.30
2018-09-18T00:29:45.071Z,65.60
2018-09-18T00:32:13.747Z,65.20
2018-09-18T00:34:42.542Z,64.70
2018-09-18T00:37:11.143Z,65.50
2018-09-18T00:39:40.624Z,64.90
2018-09-18T00:42:09.423Z,65.10
2018-09-18T00:44:38.013Z,65.30
2018-09-18T00:47:06.758Z,65.60
2018-09-18T00:49:35.622Z,65.40
2018-09-18T00:52:04.718Z,65.50
2018-09-18T00:54:33.335Z,65.50
2018-09-18T00:57:02.962Z,65.70
2018-09-18T00:59:31.570Z,65.10
2018-09-18T01:02:00.306Z,65.20
2018-09-18T01:04:29.321Z,65.90
2018-09-18T01:06:58.253Z,66.00
2018-09-18T01:09:27.035Z,65.50
2018-09-18T01:11:55.797Z,65.60
2018-09-18T01:14:24.345Z,65.70
2018-09-18T01:16:53.559Z,65.70
2018-09-18T01:19:22.165Z,65.20
2018-09-18T01:21:50.755Z,65.20
2018-09-18T01:24:19.495Z,64.20
2018-09-18T01:26:48.064Z,63.60
2018-09-18T01:29:16.883Z,63.30
2018-09-18T01:31:45.475Z,62.60
2018-09-18T01:34:14.371Z,63.10
2018-09-18T01:36:43.842Z,62.50
2018-09-18T01:39:13.049Z,62.70
2018-09-18T01:41:41.691Z,61.60
2018-09-18T01:44:10.263Z,60.90
2018-09-18T01:46:38.920Z,60.70
2018-09-18T01:49:07.486Z,60.60
2018-09-18T01:51:36.293Z,60.50
2018-09-18T01:54:04.884Z,61.00
2018-09-18T01:56:34.223Z,61.20
2018-09-18T01:59:02.811Z,60.80
2018-09-18T02:01:31.959Z,61.00
2018-09-18T02:04:00.491Z,60.40
2018-09-18T02:06:29.032Z,60.30
2018-09-18T02:08:58.311Z,60.20
2018-09-18T02:11:26.982Z,60.40
2018-09-18T02:13:55.563Z,59.90
2018-09-18T02:16:24.070Z,60.40
2018-09-18T02:18:53.329Z,59.80
2018-09-18T02:21:21.886Z,59.70
2018-09-18T02:23:50.518Z,60.30
2018-09-18T02:26:19.348Z,59.00
2018-09-18T02:28:48.195Z,59.90
2018-09-18T02:31:17.411Z,60.20
2018-09-18T02:33:45.996Z,60.50
2018-09-18T02:36:14.780Z,60.30
2018-09-18T02:38:43.632Z,60.30
2018-09-18T02:41:12.734Z,59.80
2018-09-18T02:43:41.627Z,59.40
2018-09-18T02:46:10.655Z,58.80
2018-09-18T02:48:39.165Z,58.60
2018-09-18T02:51:07.806Z,58.40
2018-09-18T02:53:36.372Z,58.30
2018-09-18T02:56:05.006Z,58.00
2018-09-18T02:58:33.568Z,57.70
2018-09-18T03:01:02.298Z,57.50
2018-09-18T03:03:31.070Z,57.40
2018-09-18T03:05:59.849Z,57.50
2018-09-18T03:08:28.594Z,57.20
2018-09-18T03:10:58.350Z,57.40
2018-09-18T03:13:27.448Z,57.30
2018-09-18T03:15:55.983Z,56.00
2018-09-18T03:18:25.060Z,56.80
2018-09-18T03:20:53.714Z,56.50
2018-09-18T03:23:22.245Z,55.80
2018-09-18T03:25:51.626Z,55.90
2018-09-18T03:28:20.251Z,56.00
2018-09-18T03:30:48.821Z,55.90
2018-09-18T03:33:17.527Z,55.70
2018-09-18T03:35:46.621Z,55.80
2018-09-18T03:38:15.160Z,55.80
2018-09-18T03:40:44.087Z,55.80
2018-09-18T03:43:12.674Z,56.00
2018-09-18T03:45:41.302Z,55.80
2018-09-18T03:48:10.196Z,55.70
2018-09-18T03:50:38.759Z,55.70
2018-09-18T03:53:07.640Z,55.80
2018-09-18T03:55:36.257Z,56.10
2018-09-18T03:58:05.672Z,55.80
2018-09-18T04:00:34.806Z,55.90
2018-09-18T04:03:03.388Z,55.80
2018-09-18T04:05:31.985Z,57.00
2018-09-18T04:08:00.525Z,55.90
2018-09-18T04:10:29.089Z,55.80
2018-09-18T04:12:58.387Z,56.40
2018-09-18T04:15:27.565Z,56.40
2018-09-18T04:17:56.463Z,56.10
2018-09-18T04:20:25.095Z,56.60
2018-09-18T04:22:53.625Z,56.90
2018-09-18T04:25:22.197Z,56.60
2018-09-18T04:27:51.027Z,56.80
2018-09-18T04:30:19.963Z,56.60
2018-09-18T04:32:48.622Z,57.30
2018-09-18T04:35:17.371Z,56.90
2018-09-18T04:37:46.148Z,57.50
2018-09-18T04:40:14.789Z,57.90
2018-09-18T04:42:43.983Z,58.00
2018-09-18T04:45:12.776Z,58.30
2018-09-18T04:47:41.322Z,59.10
2018-09-18T04:50:09.938Z,58.80
2018-09-18T04:52:39.704Z,58.90
2018-09-18T04:55:08.297Z,58.90
2018-09-18T04:57:36.899Z,59.40
2018-09-18T05:00:06.383Z,60.00
2018-09-18T05:02:34.956Z,60.10
2018-09-18T05:05:04.094Z,60.30
2018-09-18T05:07:33.089Z,61.00
2018-09-18T05:10:02.991Z,61.30
2018-09-18T05:12:31.965Z,61.00
2018-09-18T05:15:00.663Z,60.80
2018-09-18T05:17:29.214Z,61.80
2018-09-18T05:19:57.927Z,61.90
2018-09-18T05:22:26.738Z,62.90
2018-09-18T05:24:55.318Z,63.50
2018-09-18T05:27:23.920Z,64.20
2018-09-18T05:29:52.815Z,64.30
2018-09-18T05:32:21.392Z,65.20
2018-09-18T05:34:50.494Z,66.40
2018-09-18T05:37:19.070Z,67.00
2018-09-18T05:39:47.726Z,67.80
2018-09-18T05:42:16.320Z,67.70
2018-09-18T05:44:45.157Z,68.50
2018-09-18T05:47:14.659Z,70.10
2018-09-18T05:49:43.411Z,70.10
2018-09-18T05:52:11.970Z,70.70
2018-09-18T05:54:40.569Z,71.90
2018-09-18T05:57:09.484Z,71.40
2018-09-18T05:59:38.106Z,73.60
2018-09-18T06:02:06.863Z,74.00
2018-09-18T06:04:35.434Z,74.20
2018-09-18T06:07:04.075Z,75.20
2018-09-18T06:09:33.036Z,76.40
2018-09-18T06:12:01.862Z,77.40
2018-09-18T06:14:30.449Z,78.30
2018-09-18T06:16:59.062Z,79.20
2018-09-18T06:19:27.941Z,80.60
2018-09-18T06:21:56.480Z,81.40
2018-09-18T06:24:25.097Z,82.00
2018-09-18T06:26:53.720Z,84.70
2018-09-18T06:29:22.471Z,85.30
2018-09-18T06:31:51.036Z,84.60
2018-09-18T06:34:19.599Z,85.00
2018-09-18T06:36:48.576Z,85.70
2018-09-18T06:39:17.101Z,85.50
2018-09-18T06:41:45.940Z,85.80
2018-09-18T06:44:14.494Z,85.40
2018-09-18T06:46:43.034Z,85.80
2018-09-18T06:49:11.591Z,86.30
2018-09-18T06:51:40.140Z,87.50
2018-09-18T06:54:09.473Z,89.20
2018-09-18T06:56:38.021Z,88.30
2018-09-18T06:59:06.596Z,89.10
2018-09-18T07:01:35.372Z,90.20
2018-09-18T07:04:04.006Z,90.50
2018-09-18T07:06:32.640Z,90.70
2018-09-18T07:09:01.460Z,92.00
2018-09-18T07:11:30.043Z,92.90
2018-09-18T07:13:58.908Z,93.70
2018-09-18T07:16:27.642Z,94.00
2018-09-18T07:18:56.320Z,94.70
2018-09-18T07:21:24.936Z,94.90
2018-09-18T07:23:53.620Z,95.80
2018-09-18T07:26:22.516Z,98.30
2018-09-18T07:28:51.137Z,99.40
2018-09-18T07:31:19.703Z,99.90
2018-09-18T07:33:48.732Z,99.90
2018-09-18T07:36:17.259Z,99.90
2018-09-18T07:38:46.069Z,99.90
2018-09-18T07:41:14.992Z,99.90
2018-09-18T07:43:44.435Z,99.90
2018-09-18T07:46:13.068Z,99.90
2018-09-18T07:48:41.841Z,99.90
2018-09-18T07:51:11.056Z,99.90
2018-09-18T07:53:40.173Z,99.90
2018-09-18T07:56:08.784Z,99.90
2018-09-18T07:58:37.408Z,99.90
2018-09-18T08:01:06.039Z,99.90
2018-09-18T08:03:34.628Z,99.90
2018-09-18T08:06:03.286Z,99.90
2018-09-18T08:08:32.154Z,99.90
2018-09-18T08:11:01.234Z,99.90
2018-09-18T08:13:29.894Z,99.90
2018-09-18T08:15:58.432Z,99.90
2018-09-18T08:18:27.523Z,99.90
2018-09-18T08:20:56.064Z,99.90
2018-09-18T08:23:24.662Z,99.90
2018-09-18T08:25:53.263Z,99.90
2018-09-18T08:28:21.860Z,99.90
2018-09-18T08:30:50.448Z,99.90
2018-09-18T08:33:19.065Z,99.90
2018-09-18T08:35:47.700Z,99.90
2018-09-18T08:38:16.347Z,99.90
2018-09-18T08:40:44.970Z,99.90
2018-09-18T08:43:13.780Z,99.90
2018-09-18T08:45:42.408Z,99.90
2018-09-18T08:48:11.408Z,99.90
2018-09-18T08:50:40.022Z,99.90
2018-09-18T08:53:08.622Z,99.90
2018-09-18T08:55:37.472Z,99.90
2018-09-18T08:58:06.151Z,99.90
2018-09-18T09:00:35.142Z,99.90
2018-09-18T09:03:03.849Z,99.90
2018-09-18T09:05:32.446Z,99.90
2018-09-18T09:08:01.051Z,99.90
2018-09-18T09:10:29.618Z,99.90
2018-09-18T09:12:59.068Z,99.90
2018-09-18T09:15:27.662Z,99.90
2018-09-18T09:17:56.549Z,99.90
2018-09-18T09:20:25.189Z,99.90
2018-09-18T09:22:54.022Z,99.90
2018-09-18T09:25:22.612Z,99.90
2018-09-18T09:27:51.274Z,99.90
2018-09-18T09:30:20.256Z,99.90
2018-09-18T09:32:49.033Z,99.90
2018-09-18T09:35:17.599Z,99.90
2018-09-18T09:37:46.218Z,99.90
2018-09-18T09:40:15.192Z,99.90
2018-09-18T09:42:43.786Z,99.90
2018-09-18T09:45:12.392Z,99.90
2018-09-18T09:47:41.274Z,99.90
2018-09-18T09:50:10.136Z,99.90
2018-09-18T09:52:38.751Z,99.90
2018-09-18T09:55:07.544Z,99.90
2018-09-18T09:57:36.086Z,99.90
2018-09-18T10:00:06.388Z,99.90
2018-09-18T10:02:40.336Z,99.90
2018-09-18T10:05:08.955Z,99.90
2018-09-18T10:07:37.682Z,99.90
2018-09-18T10:10:06.583Z,99.90
2018-09-18T10:12:36.014Z,99.90
2018-09-18T10:15:05.317Z,99.90
2018-09-18T10:17:35.009Z,99.90
2018-09-18T10:20:04.162Z,99.90
2018-09-18T10:22:33.070Z,99.90
2018-09-18T10:25:01.768Z,99.90
2018-09-18T10:27:30.306Z,99.90
2018-09-18T10:29:59.174Z,99.90
2018-09-18T10:32:28.031Z,99.90
2018-09-18T10:34:56.623Z,99.90
2018-09-18T10:37:25.260Z,99.90
2018-09-18T10:39:53.858Z,99.90
2018-09-18T10:42:22.476Z,99.90
2018-09-18T10:44:51.304Z,99.90
2018-09-18T10:47:20.025Z,99.90
2018-09-18T10:49:48.620Z,99.90
2018-09-18T10:52:17.227Z,99.90
2018-09-18T10:54:46.113Z,99.90
2018-09-18T10:57:14.894Z,99.90
2018-09-18T10:59:43.645Z,99.90
2018-09-18T11:02:12.383Z,99.90
2018-09-18T11:04:40.926Z,99.90
2018-09-18T11:07:10.229Z,99.90
2018-09-18T11:09:39.043Z,99.90
2018-09-18T11:12:07.641Z,99.90
2018-09-18T11:14:36.302Z,99.90
2018-09-18T11:17:05.431Z,99.90
2018-09-18T11:19:34.037Z,99.90
2018-09-18T11:22:02.729Z,99.90
2018-09-18T11:24:31.894Z,99.90
2018-09-18T11:27:00.577Z,99.90
2018-09-18T11:29:30.702Z,99.50
2018-09-18T11:31:59.397Z,98.80
2018-09-18T11:34:28.162Z,99.60
2018-09-18T11:36:56.750Z,99.70
2018-09-18T11:39:25.284Z,99.50
2018-09-18T11:41:54.128Z,99.30
2018-09-18T11:44:22.654Z,99.90
2018-09-18T11:46:51.305Z,99.90
2018-09-18T11:49:19.888Z,97.30
2018-09-18T11:51:48.807Z,96.60
2018-09-18T11:54:17.521Z,95.90
2018-09-18T11:56:46.239Z,95.70
2018-09-18T11:59:14.836Z,96.00
2018-09-18T12:01:43.892Z,96.50
2018-09-18T12:04:12.694Z,95.10
2018-09-18T12:06:41.292Z,96.20
2018-09-18T12:09:12.204Z,96.10
2018-09-18T12:11:41.354Z,93.50
2018-09-18T12:14:09.978Z,93.10
2018-09-18T12:16:38.590Z,92.30
2018-09-18T12:19:07.454Z,92.10
2018-09-18T12:21:36.056Z,91.80
2018-09-18T12:24:04.726Z,90.30
2018-09-18T12:26:33.272Z,90.30
2018-09-18T12:29:01.890Z,90.10
2018-09-18T12:31:30.496Z,90.80
2018-09-18T12:33:59.285Z,90.10
2018-09-18T12:36:28.003Z,90.20
2018-09-18T12:38:56.580Z,90.70
2018-09-18T12:41:25.373Z,89.60
2018-09-18T12:43:53.903Z,88.70
2018-09-18T12:46:22.520Z,89.00
2018-09-18T12:48:51.347Z,87.10
2018-09-18T12:51:19.925Z,85.10
2018-09-18T12:53:48.640Z,83.50
2018-09-18T12:56:17.464Z,84.10
2018-09-18T12:58:46.267Z,86.80
2018-09-18T13:01:14.894Z,85.30
2018-09-18T13:03:43.499Z,85.30
2018-09-18T13:06:12.313Z,85.20
2018-09-18T13:08:40.848Z,85.40
2018-09-18T13:11:09.658Z,86.80
2018-09-18T13:13:39.123Z,86.40
2018-09-18T13:16:07.677Z,86.80
2018-09-18T13:18:36.564Z,87.90
2018-09-18T13:21:05.143Z,88.70
2018-09-18T13:23:33.873Z,88.40
2018-09-18T13:26:02.507Z,88.70
2018-09-18T13:28:31.094Z,85.30
2018-09-18T13:31:01.001Z,87.90
2018-09-18T13:33:29.858Z,87.80
2018-09-18T13:35:58.619Z,83.40
2018-09-18T13:38:28.056Z,80.40
2018-09-18T13:40:56.752Z,80.20
2018-09-18T13:43:25.417Z,78.30
2018-09-18T13:45:54.227Z,78.60
2018-09-18T13:48:22.993Z,79.70
2018-09-18T13:50:51.958Z,76.90
2018-09-18T13:53:20.561Z,76.00
2018-09-18T13:55:49.202Z,77.60
2018-09-18T13:58:17.860Z,78.80
2018-09-18T14:00:46.600Z,77.80
2018-09-18T14:03:15.249Z,79.00
2018-09-18T14:05:44.523Z,78.90
2018-09-18T14:08:13.084Z,75.30
2018-09-18T14:10:41.826Z,76.40
2018-09-18T14:13:10.794Z,79.00
2018-09-18T14:15:39.376Z,78.20
2018-09-18T14:18:08.321Z,77.70
2018-09-18T14:20:36.880Z,76.40
2018-09-18T14:23:05.484Z,77.10
2018-09-18T14:25:34.621Z,76.00
2018-09-18T14:30:42.706Z,76.00
2018-09-18T14:33:11.370Z,77.80
2018-09-18T14:35:39.912Z,78.80
2018-09-18T14:38:08.832Z,78.50
2018-09-18T14:40:37.556Z,79.20
2018-09-18T14:43:06.462Z,80.50
2018-09-18T14:45:35.061Z,77.90
2018-09-18T14:48:04.009Z,78.30
2018-09-18T14:50:32.939Z,77.20
2018-09-18T14:53:01.513Z,77.10
2018-09-18T14:55:30.196Z,78.40
2018-09-18T14:57:59.051Z,80.10
2018-09-18T15:00:27.685Z,77.70
2018-09-18T15:02:56.257Z,75.70
2018-09-18T15:05:24.887Z,77.30
2018-09-18T15:07:53.461Z,75.20
2018-09-18T15:10:22.086Z,76.60
2018-09-18T15:12:50.783Z,76.90
2018-09-18T15:15:19.413Z,78.20
2018-09-18T15:17:48.167Z,80.30
2018-09-18T15:20:16.737Z,78.90
2018-09-18T15:22:45.739Z,78.50
2018-09-18T15:25:14.405Z,79.30
2018-09-18T15:27:43.130Z,78.80
2018-09-18T15:30:12.227Z,80.20
2018-09-18T15:32:41.038Z,80.40
2018-09-18T15:35:09.891Z,81.60
2018-09-18T15:37:38.482Z,82.80
2018-09-18T15:40:07.231Z,81.60
2018-09-18T15:42:35.815Z,84.80
2018-09-18T15:45:04.530Z,82.70
2018-09-18T15:47:33.342Z,84.50
2018-09-18T15:50:02.158Z,84.10
2018-09-18T15:52:30.959Z,84.40
2018-09-18T15:55:00.760Z,83.60
2018-09-18T15:57:29.900Z,85.70
2018-09-18T15:59:58.460Z,85.40
2018-09-18T16:02:27.039Z,86.40
2018-09-18T16:04:55.855Z,88.90
2018-09-18T16:07:24.450Z,87.80
2018-09-18T16:09:53.103Z,89.70
2018-09-18T16:12:21.709Z,89.70
2018-09-18T16:14:50.310Z,90.40
2018-09-18T16:17:18.896Z,88.10
2018-09-18T16:19:47.698Z,87.80
2018-09-18T16:22:16.299Z,89.30
2018-09-18T16:24:45.314Z,88.50
2018-09-18T16:27:13.885Z,89.00
2018-09-18T16:29:42.489Z,89.90
2018-09-18T16:32:11.961Z,91.70
2018-09-18T16:34:40.853Z,91.80
2018-09-18T16:37:09.473Z,90.90
2018-09-18T16:39:38.133Z,91.00
2018-09-18T16:42:07.038Z,91.60
2018-09-18T16:44:35.915Z,92.40
2018-09-18T16:47:04.592Z,94.00
2018-09-18T16:49:33.273Z,94.50
2018-09-18T16:52:02.846Z,94.00
2018-09-18T16:54:31.972Z,93.90
2018-09-18T16:57:00.791Z,93.90
2018-09-18T16:59:29.345Z,93.80
2018-09-18T17:01:57.997Z,93.70
2018-09-18T17:04:26.971Z,93.60
2018-09-18T17:06:55.784Z,94.60
2018-09-18T17:09:24.413Z,93.90
2018-09-18T17:11:53.161Z,94.40
2018-09-18T17:14:21.782Z,95.40
2018-09-18T17:16:50.554Z,95.70
2018-09-18T17:19:19.160Z,96.20
2018-09-18T17:21:47.778Z,95.70
2018-09-18T17:24:16.356Z,95.70
2018-09-18T17:26:45.195Z,95.50
2018-09-18T17:29:13.815Z,94.40
2018-09-18T17:31:42.630Z,95.70
2018-09-18T17:34:11.185Z,96.30
2018-09-18T17:36:39.784Z,96.30
2018-09-18T17:39:09.572Z,97.20
2018-09-18T17:41:38.259Z,96.10
2018-09-18T17:44:07.225Z,95.60
2018-09-18T17:46:35.845Z,96.60
2018-09-18T17:49:04.717Z,97.10
2018-09-18T17:51:33.339Z,97.60
2018-09-18T17:54:02.001Z,97.40
2018-09-18T17:56:30.584Z,97.70
2018-09-18T17:58:59.188Z,98.00
2018-09-18T18:01:27.852Z,98.00
2018-09-18T18:03:56.482Z,99.00
2018-09-18T18:06:25.104Z,99.50
2018-09-18T18:08:53.722Z,99.90
2018-09-18T18:11:22.504Z,99.90
2018-09-18T18:13:51.139Z,99.90
2018-09-18T18:16:19.710Z,99.90
2018-09-18T18:18:48.264Z,99.90
2018-09-18T18:21:16.803Z,99.90
2018-09-18T18:23:45.397Z,99.90
2018-09-18T18:26:14.009Z,99.90
2018-09-18T18:28:42.600Z,99.90
2018-09-18T18:31:11.234Z,99.90
2018-09-18T18:33:39.890Z,99.90
2018-09-18T18:36:08.467Z,99.90
2018-09-18T18:38:37.063Z,99.90
2018-09-18T18:41:05.738Z,99.90
2018-09-18T18:43:34.352Z,99.90
2018-09-18T18:46:02.986Z,99.90
2018-09-18T18:48:31.756Z,99.90
2018-09-18T18:51:01.279Z,99.90
2018-09-18T18:53:29.923Z,99.90
2018-09-18T18:55:58.671Z,99.90
2018-09-18T18:58:27.276Z,99.90
2018-09-18T19:00:55.831Z,99.90
2018-09-18T19:03:24.470Z,99.90
2018-09-18T19:05:53.121Z,99.90
2018-09-18T19:08:21.705Z,99.90
2018-09-18T19:10:50.449Z,99.90
2018-09-18T19:13:19.182Z,99.90
2018-09-18T19:15:47.901Z,99.90
2018-09-18T19:18:16.570Z,99.90
2018-09-18T19:20:45.232Z,99.90
2018-09-18T19:23:13.837Z,99.90
2018-09-18T19:25:42.461Z,99.90
2018-09-18T19:28:11.111Z,99.90
2018-09-18T19:30:39.717Z,99.90
2018-09-18T19:33:08.648Z,99.90
2018-09-18T19:35:37.537Z,99.90
2018-09-18T19:38:06.170Z,99.90
2018-09-18T19:40:34.866Z,99.90
2018-09-18T19:43:03.591Z,99.90
2018-09-18T19:45:32.128Z,99.90
2018-09-18T19:48:00.764Z,99.90
2018-09-18T19:50:29.538Z,99.90
2018-09-18T19:52:58.044Z,99.90
2018-09-18T19:55:26.772Z,99.90
2018-09-18T19:57:55.388Z,99.90
2018-09-18T20:00:24.067Z,99.90
2018-09-18T20:02:52.790Z,99.90
2018-09-18T20:05:21.392Z,99.90
2018-09-18T20:07:50.373Z,99.90
2018-09-18T20:10:18.985Z,99.90
2018-09-18T20:12:47.765Z,99.90
2018-09-18T20:15:16.428Z,99.90
2018-09-18T20:17:45.306Z,99.90
2018-09-18T20:20:14.114Z,99.90
2018-09-18T20:22:43.157Z,99.90
2018-09-18T20:25:11.855Z,99.90
2018-09-18T20:27:40.462Z,99.90
2018-09-18T20:30:09.477Z,99.90
2018-09-18T20:32:38.327Z,99.90
2018-09-18T20:35:07.107Z,99.90
2018-09-18T20:37:35.855Z,99.90
2018-09-18T20:40:04.654Z,99.90
2018-09-18T20:42:33.240Z,99.90
2018-09-18T20:45:02.630Z,99.90
2018-09-18T20:47:31.481Z,99.90
2018-09-18T20:50:00.367Z,99.90
2018-09-18T20:52:28.994Z,99.90
2018-09-18T20:54:58.133Z,99.90
2018-09-18T20:57:26.741Z,99.90
2018-09-18T20:59:55.435Z,99.90
2018-09-18T21:02:25.155Z,99.90
2018-09-18T21:04:53.787Z,99.90
2018-09-18T21:07:22.337Z,99.90
2018-09-18T21:09:51.080Z,99.90
2018-09-18T21:12:19.673Z,99.90
2018-09-18T21:14:48.263Z,99.90
2018-09-18T21:17:16.819Z,99.90
2018-09-18T21:19:45.492Z,99.90
2018-09-18T21:22:14.120Z,99.90
2018-09-18T21:24:42.697Z,99.90
2018-09-18T21:27:11.264Z,99.90
2018-09-18T21:29:39.978Z,99.90
2018-09-18T21:32:08.607Z,99.90
2018-09-18T21:34:37.427Z,99.90
2018-09-18T21:37:06.402Z,99.90
2018-09-18T21:39:35.067Z,99.90
2018-09-18T21:42:03.648Z,99.90
2018-09-18T21:44:32.372Z,99.90
2018-09-18T21:47:01.847Z,99.90
2018-09-18T21:49:37.751Z,99.90
2018-09-18T21:52:06.793Z,99.90
2018-09-18T21:54:35.366Z,99.90
2018-09-18T21:57:03.955Z,99.90
2018-09-18T21:59:32.478Z,99.90
2018-09-18T22:02:01.055Z,99.90
2018-09-18T22:04:29.680Z,99.90
2018-09-18T22:06:58.380Z,99.90
2018-09-18T22:09:26.892Z,99.90
2018-09-18T22:11:55.508Z,99.90
2018-09-18T22:14:24.290Z,99.90
2018-09-18T22:16:52.845Z,99.90
2018-09-18T22:19:21.445Z,99.90
2018-09-18T22:21:50.411Z,99.90
2018-09-18T22:24:18.959Z,99.90
2018-09-18T22:26:47.545Z,99.90
2018-09-18T22:29:16.123Z,99.90
2018-09-18T22:31:44.651Z,99.90
2018-09-18T22:34:13.445Z,99.90
2018-09-18T22:36:42.225Z,99.90
2018-09-18T22:39:10.784Z,99.90
2018-09-18T22:41:39.556Z,99.90
2018-09-18T22:44:08.201Z,99.90
2018-09-18T22:46:36.779Z,99.90
2018-09-18T22:49:05.409Z,99.90
2018-09-18T22:51:33.971Z,99.90
2018-09-18T22:54:02.576Z,99.90
2018-09-18T22:56:31.132Z,99.90
2018-09-18T22:59:00.048Z,99.90
2018-09-18T23:01:28.588Z,99.90
2018-09-18T23:03:57.219Z,99.90
2018-09-18T23:06:25.752Z,99.90
2018-09-18T23:08:54.290Z,99.90
2018-09-18T23:11:22.976Z,99.90
2018-09-18T23:13:51.460Z,99.90
2018-09-18T23:16:20.009Z,99.90
2018-09-18T23:18:48.561Z,99.90
2018-09-18T23:21:17.294Z,99.90
2018-09-18T23:23:45.934Z,99.90
2018-09-18T23:26:14.482Z,99.90
2018-09-18T23:28:43.059Z,99.90
2018-09-18T23:31:11.640Z,99.90
2018-09-18T23:33:40.222Z,99.90
2018-09-18T23:36:08.771Z,99.90
2018-09-18T23:38:37.355Z,99.90
2018-09-18T23:41:06.138Z,99.90
2018-09-18T23:43:34.723Z,99.90
2018-09-18T23:46:03.278Z,99.90
2018-09-18T23:48:31.849Z,99.90
2018-09-18T23:51:00.441Z,99.90
2018-09-18T23:53:29.212Z,99.90
2018-09-18T23:55:58.369Z,99.90
2018-09-18T23:58:27.120Z,99.90
